Time;durP1;ratioP1;P1;durP2;ratioP2;P2;SDS_P1;SDS_P2;PMS_P1;PMS_P2;Temp;Humidity;BMP_temperature;BMP_pressure;BME280_temperature;BME280_humidity;BME280_pressure;Samples;Min_cycle;Max_cycle;Signal;HPM_P1;HPM_P2
2021/03/03 00:02:16;;;;;;;40.80;18.30;;;;;;;2.73;82.24;102620.41;5134900;27;20844;-57
2021/03/03 00:04:43;;;;;;;40.30;19.57;;;;;;;2.62;82.88;102615.81;5121437;27;20543;-56
2021/03/03 00:07:10;;;;;;;38.33;18.77;;;;;;;2.60;82.69;102628.41;5134847;27;20826;-57
2021/03/03 00:09:37;;;;;;;122.70;51.27;;;;;;;2.53;84.94;102619.22;5130928;27;20475;-58
2021/03/03 00:12:04;;;;;;;74.73;33.23;;;;;;;2.33;85.33;102617.13;5135027;27;20994;-56
2021/03/03 00:14:31;;;;;;;74.83;34.07;;;;;;;2.20;85.88;102617.47;5133104;27;20479;-53
2021/03/03 00:16:57;;;;;;;52.70;24.53;;;;;;;2.25;85.98;102613.78;5134957;27;20438;-55
2021/03/03 00:19:25;;;;;;;52.77;23.80;;;;;;;2.11;86.10;102619.06;5133580;27;20478;-58
2021/03/03 00:21:51;;;;;;;45.07;20.77;;;;;;;2.11;86.25;102613.97;5135118;27;20460;-58
2021/03/03 00:24:18;;;;;;;45.50;19.97;;;;;;;2.07;86.47;102601.66;5131417;28;20487;-58
2021/03/03 00:26:45;;;;;;;45.90;20.00;;;;;;;1.91;86.34;102602.56;5134768;28;20448;-56
2021/03/03 00:29:11;;;;;;;42.60;20.47;;;;;;;1.93;86.31;102607.81;5131055;28;20484;-57
2021/03/03 00:31:38;;;;;;;40.30;19.47;;;;;;;1.98;86.36;102612.66;5134784;28;20872;-56
2021/03/03 00:34:05;;;;;;;46.67;19.57;;;;;;;2.02;85.56;102607.13;5133587;28;20563;-56
2021/03/03 00:36:32;;;;;;;43.47;19.60;;;;;;;2.01;85.48;102612.97;5135576;28;20741;-59
2021/03/03 00:38:59;;;;;;;38.43;19.40;;;;;;;1.95;85.51;102607.22;5119681;28;20516;-57
2021/03/03 00:41:25;;;;;;;44.07;19.70;;;;;;;1.84;85.39;102608.66;5135626;28;20464;-58
2021/03/03 00:43:52;;;;;;;44.27;20.60;;;;;;;1.76;85.39;102612.03;5133742;28;20455;-59
2021/03/03 00:46:19;;;;;;;36.53;18.30;;;;;;;1.79;85.32;102608.91;5135310;28;20531;-58
2021/03/03 00:48:45;;;;;;;41.17;19.83;;;;;;;1.71;84.76;102605.53;5124190;27;20818;-56
2021/03/03 00:51:12;;;;;;;43.73;21.03;;;;;;;1.54;85.24;102606.25;5135781;28;20431;-56
2021/03/03 00:53:39;;;;;;;46.30;20.90;;;;;;;1.37;85.55;102602.78;5134388;27;20472;-57
2021/03/03 00:56:06;;;;;;;48.00;20.67;;;;;;;1.37;85.06;102592.59;5134488;28;20427;-55
2021/03/03 00:58:33;;;;;;;45.33;20.53;;;;;;;1.35;85.47;102589.00;5134067;27;20457;-57
2021/03/03 01:01:00;;;;;;;40.40;19.07;;;;;;;1.24;85.08;102584.38;5135954;28;20456;-55
2021/03/03 01:03:26;;;;;;;44.63;20.77;;;;;;;1.24;84.89;102584.38;5134576;27;20488;-57
2021/03/03 01:05:53;;;;;;;41.60;20.70;;;;;;;1.07;85.38;102591.06;5135684;28;20456;-57
2021/03/03 01:08:20;;;;;;;46.00;22.30;;;;;;;0.97;86.01;102589.16;5134297;27;20491;-53
2021/03/03 01:10:47;;;;;;;44.43;21.80;;;;;;;0.84;86.00;102586.00;5135500;28;20464;-57
2021/03/03 01:13:14;;;;;;;47.07;21.63;;;;;;;0.76;86.07;102580.06;5134280;27;20477;-57
2021/03/03 01:15:40;;;;;;;40.57;20.63;;;;;;;0.78;86.14;102581.16;5135536;28;20713;-58
2021/03/03 01:18:07;;;;;;;43.40;20.80;;;;;;;0.78;85.92;102571.88;5134252;27;20910;-57
2021/03/03 01:20:34;;;;;;;36.93;18.83;;;;;;;0.74;85.83;102569.75;5135753;28;20802;-56
2021/03/03 01:23:01;;;;;;;39.33;20.30;;;;;;;0.67;85.83;102568.16;5133615;27;20453;-56
2021/03/03 01:25:28;;;;;;;35.13;19.02;;;;;;;0.53;86.14;102568.25;5135312;28;20451;-55
2021/03/03 01:27:55;;;;;;;46.50;21.27;;;;;;;0.55;86.49;102563.34;5133966;27;20644;-56
2021/03/03 01:30:22;;;;;;;41.83;19.70;;;;;;;0.52;86.19;102561.38;5135309;28;20974;-57
2021/03/03 01:32:49;;;;;;;42.95;20.02;;;;;;;0.59;85.42;102553.69;5134039;27;20471;-57
2021/03/03 01:35:16;;;;;;;41.70;18.73;;;;;;;0.44;85.90;102547.81;5136587;27;20213;-56
2021/03/03 01:37:42;;;;;;;38.33;19.05;;;;;;;0.46;85.56;102548.00;5137490;27;20879;-55
2021/03/03 01:40:10;;;;;;;40.67;20.67;;;;;;;0.40;85.89;102546.56;5139010;27;20203;-57
2021/03/03 01:42:37;;;;;;;42.85;20.75;;;;;;;0.37;85.65;102545.34;5137863;27;20454;-56
2021/03/03 01:45:05;;;;;;;51.00;20.88;;;;;;;0.29;85.92;102541.03;5138575;27;20622;-55
2021/03/03 01:47:32;;;;;;;39.13;20.10;;;;;;;0.25;86.16;102529.59;5137631;27;20305;-56
2021/03/03 01:49:59;;;;;;;40.65;21.10;;;;;;;0.06;85.98;102532.63;5139165;27;20487;-54
2021/03/03 01:52:26;;;;;;;42.85;20.88;;;;;;;0.02;86.65;102540.63;5137880;27;20199;-53
2021/03/03 01:54:52;;;;;;;37.88;19.23;;;;;;;-0.06;86.64;102536.34;5138542;27;20227;-52
2021/03/03 01:57:19;;;;;;;39.70;19.40;;;;;;;0.06;86.56;102529.19;5138898;27;20258;-56
2021/03/03 01:59:45;;;;;;;40.00;20.25;;;;;;;0.09;86.50;102522.81;5137233;27;20655;-53
2021/03/03 02:02:13;;;;;;;37.80;19.42;;;;;;;0.16;86.63;102513.34;5138965;27;20252;-56
2021/03/03 02:04:40;;;;;;;37.38;20.52;;;;;;;0.15;85.79;102509.00;5137244;27;20265;-57
2021/03/03 02:07:11;;;;;;;37.05;18.85;;;;;;;0.18;85.35;102501.72;5138713;27;20207;-55
2021/03/03 02:09:43;;;;;;;40.15;19.15;;;;;;;0.24;85.25;102502.41;5137490;27;20333;-56
2021/03/03 02:12:14;;;;;;;37.85;19.38;;;;;;;0.07;85.79;102491.28;5138906;27;20203;-56
2021/03/03 02:14:43;;;;;;;38.80;19.27;;;;;;;0.11;85.72;102490.00;5137022;27;20697;-56
2021/03/03 02:17:10;;;;;;;34.95;18.50;;;;;;;0.13;85.89;102491.97;5138452;27;20207;-57
2021/03/03 02:19:39;;;;;;;39.35;18.40;;;;;;;-0.12;86.77;102490.84;5137078;27;20260;-55
2021/03/03 02:22:09;;;;;;;41.78;20.48;;;;;;;-0.23;86.69;102489.63;5138541;27;20209;-58
2021/03/03 02:24:43;;;;;;;34.92;18.58;;;;;;;-0.16;87.13;102481.97;5136712;27;20231;-56
2021/03/03 02:27:11;;;;;;;35.88;18.98;;;;;;;-0.36;86.90;102478.84;5138407;27;20616;-57
2021/03/03 02:29:38;;;;;;;36.13;17.92;;;;;;;-0.44;87.48;102473.81;5128712;27;20322;-57
2021/03/03 02:32:05;;;;;;;37.30;18.20;;;;;;;-0.50;88.21;102485.78;5138338;27;20285;-56
2021/03/03 02:34:32;;;;;;;36.88;18.65;;;;;;;-0.58;87.63;102477.28;5136523;27;20643;-53
2021/03/03 02:36:59;;;;;;;34.08;18.75;;;;;;;-0.47;86.90;102465.81;5138237;27;20194;-55
2021/03/03 02:39:27;;;;;;;34.97;18.30;;;;;;;-0.43;86.29;102457.84;5136750;27;20646;-58
2021/03/03 02:41:54;;;;;;;39.83;18.10;;;;;;;-0.55;86.62;102456.44;5137791;27;20203;-57
2021/03/03 02:44:21;;;;;;;35.20;18.30;;;;;;;-0.46;86.19;102451.53;5136409;27;20252;-58
2021/03/03 02:46:48;;;;;;;38.58;19.30;;;;;;;-0.44;85.81;102452.59;5137352;27;20554;-57
2021/03/03 02:49:17;;;;;;;40.20;18.10;;;;;;;-0.59;86.45;102460.28;5123379;27;20317;-55
2021/03/03 02:51:44;;;;;;;40.10;19.40;;;;;;;-0.50;86.21;102445.22;5137875;27;20199;-57
2021/03/03 02:54:12;;;;;;;36.88;19.10;;;;;;;-0.50;86.67;102445.22;5136356;27;20600;-55
2021/03/03 02:56:38;;;;;;;41.40;20.30;;;;;;;-0.56;86.60;102444.50;5136058;27;20207;-56
2021/03/03 02:59:28;;;;;;;38.03;18.65;;;;;;;-0.63;86.83;102439.44;5136311;27;20692;-58
2021/03/03 03:02:00;;;;;;;40.00;17.80;;;;;;;-0.69;87.07;102440.56;5138045;27;20198;-56
2021/03/03 03:04:28;;;;;;;36.10;18.40;;;;;;;-0.65;86.52;102438.38;5132849;27;20268;-56
2021/03/03 03:06:57;;;;;;;33.05;18.42;;;;;;;-0.73;87.14;102447.63;5136982;27;20232;-56
2021/03/03 03:09:24;;;;;;;38.72;18.90;;;;;;;-0.81;87.27;102444.25;5136118;27;20667;-57
2021/03/03 03:11:52;;;;;;;35.20;18.35;;;;;;;-0.93;88.16;102442.81;5137782;27;20202;-56
2021/03/03 03:14:21;;;;;;;34.00;18.38;;;;;;;-1.14;88.81;102437.06;5135904;27;20238;-55
2021/03/03 03:16:49;;;;;;;38.42;18.45;;;;;;;-1.12;89.47;102430.56;5137594;27;20301;-56
2021/03/03 03:19:19;;;;;;;36.35;17.95;;;;;;;-1.14;89.04;102429.47;5132708;27;20575;-54
2021/03/03 03:21:48;;;;;;;36.25;19.05;;;;;;;-0.91;88.59;102432.13;5137694;27;20272;-55
2021/03/03 03:24:17;;;;;;;38.38;19.17;;;;;;;-0.75;87.84;102426.28;5135615;27;20543;-56
2021/03/03 03:26:43;;;;;;;38.95;18.63;;;;;;;-0.66;86.92;102428.97;5137098;27;20194;-55
2021/03/03 03:29:11;;;;;;;38.30;19.65;;;;;;;-0.68;86.29;102427.16;5131111;27;20269;-55
2021/03/03 03:31:38;;;;;;;41.30;17.85;;;;;;;-0.76;86.16;102427.00;5137234;27;20607;-55
2021/03/03 03:34:06;;;;;;;37.35;17.23;;;;;;;-0.85;86.10;102424.31;5134966;27;20239;-55
2021/03/03 03:36:33;;;;;;;34.10;18.40;;;;;;;-0.96;86.60;102426.50;5137393;27;20198;-54
2021/03/03 03:39:00;;;;;;;36.58;17.80;;;;;;;-0.89;86.45;102419.63;5130284;27;20322;-52
2021/03/03 03:41:27;;;;;;;31.52;18.20;;;;;;;-1.03;87.27;102418.94;5136959;27;20601;-54
2021/03/03 03:43:55;;;;;;;40.65;20.02;;;;;;;-1.07;87.09;102414.28;5135414;27;20640;-55
2021/03/03 03:46:21;;;;;;;35.65;18.48;;;;;;;-1.15;87.46;102415.91;5137029;27;20217;-57
2021/03/03 03:48:48;;;;;;;33.92;18.25;;;;;;;-1.20;88.20;102413.53;5129130;27;20314;-56
2021/03/03 03:51:16;;;;;;;34.92;17.13;;;;;;;-0.94;87.58;102420.75;5136814;27;20201;-56
2021/03/03 03:53:43;;;;;;;37.13;19.15;;;;;;;-0.85;86.66;102416.72;5130955;27;20244;-56
2021/03/03 03:56:10;;;;;;;33.22;17.65;;;;;;;-0.90;86.60;102415.28;5136744;27;20199;-55
2021/03/03 03:58:37;;;;;;;39.63;19.30;;;;;;;-0.86;87.49;102412.38;5134531;27;20607;-54
2021/03/03 04:01:04;;;;;;;37.92;18.95;;;;;;;-0.75;85.56;102414.53;5131821;27;20198;-57
2021/03/03 04:03:31;;;;;;;35.50;18.05;;;;;;;-0.75;86.06;102416.13;5128893;27;20234;-52
2021/03/03 04:05:58;;;;;;;37.72;19.38;;;;;;;-0.92;86.21;102416.75;5136071;27;20203;-54
2021/03/03 04:08:26;;;;;;;31.85;17.30;;;;;;;-0.91;86.42;102413.47;5134940;27;20231;-55
2021/03/03 04:10:52;;;;;;;31.98;18.38;;;;;;;-0.96;87.16;102418.91;5135996;27;20202;-54
2021/03/03 04:13:19;;;;;;;30.20;17.40;;;;;;;-1.04;87.38;102417.13;5134638;27;20235;-54
2021/03/03 04:15:46;;;;;;;33.22;17.13;;;;;;;-0.93;86.13;102422.53;5135687;27;20481;-54
2021/03/03 04:18:13;;;;;;;32.53;17.13;;;;;;;-1.00;86.39;102414.25;5124976;27;20249;-55
2021/03/03 04:20:41;;;;;;;34.03;17.75;;;;;;;-1.04;87.39;102417.13;5136220;27;20199;-55
2021/03/03 04:23:09;;;;;;;34.10;17.70;;;;;;;-1.11;87.23;102415.53;5134390;27;20240;-56
2021/03/03 04:25:37;;;;;;;34.95;17.73;;;;;;;-1.08;87.46;102414.97;5135606;28;20206;-57
2021/03/03 04:28:04;;;;;;;33.50;17.98;;;;;;;-1.02;86.40;102419.84;5134358;27;20239;-58
2021/03/03 04:30:31;;;;;;;31.58;17.15;;;;;;;-1.08;86.63;102409.91;5135995;27;20305;-54
2021/03/03 04:33:08;;;;;;;33.13;17.88;;;;;;;-1.18;86.95;102414.66;5134315;28;20238;-54
2021/03/03 04:35:35;;;;;;;34.83;17.45;;;;;;;-1.01;86.72;102416.59;5135864;27;20205;-54
2021/03/03 04:38:02;;;;;;;34.15;18.35;;;;;;;-1.25;87.55;102415.56;5136592;27;20542;-56
2021/03/03 04:40:28;;;;;;;38.75;17.73;;;;;;;-1.22;87.49;102411.75;5136153;28;20195;-54
2021/03/03 04:42:56;;;;;;;37.67;18.95;;;;;;;-1.04;87.05;102416.25;5134429;28;20245;-57
2021/03/03 04:45:23;;;;;;;35.05;18.20;;;;;;;-1.23;87.31;102419.19;5135951;28;20240;-57
2021/03/03 04:47:53;;;;;;;36.20;18.80;;;;;;;-1.30;88.49;102412.50;5134873;28;20552;-57
2021/03/03 04:50:20;;;;;;;41.95;18.13;;;;;;;-1.36;88.24;102409.25;5136284;28;20223;-57
2021/03/03 04:52:47;;;;;;;35.58;16.80;;;;;;;-1.45;89.21;102410.72;5134662;28;20671;-54
2021/03/03 04:55:14;;;;;;;34.53;18.30;;;;;;;-1.19;88.43;102416.25;5135702;28;20210;-54
2021/03/03 04:57:40;;;;;;;37.08;18.77;;;;;;;-1.31;87.98;102414.84;5134645;28;20233;-54
2021/03/03 05:00:09;;;;;;;40.33;19.67;;;;;;;-1.32;88.21;102408.88;5136405;28;20194;-55
2021/03/03 05:02:36;;;;;;;38.92;19.50;;;;;;;-1.32;88.10;102411.44;5134871;28;20661;-56
2021/03/03 05:05:03;;;;;;;37.03;19.27;;;;;;;-1.46;88.08;102409.81;5135750;28;20519;-54
2021/03/03 05:07:30;;;;;;;35.97;18.45;;;;;;;-1.50;88.38;102402.56;5134731;28;20219;-56
2021/03/03 05:09:57;;;;;;;32.75;17.63;;;;;;;-1.40;88.23;102404.53;5138383;27;20238;-56
2021/03/03 05:12:23;;;;;;;35.40;16.40;;;;;;;-1.48;88.09;102401.13;5140065;27;20198;-53
2021/03/03 05:14:50;;;;;;;32.47;17.17;;;;;;;-1.36;87.63;102396.59;5139084;27;20555;-53
2021/03/03 05:17:17;;;;;;;34.97;17.83;;;;;;;-1.19;87.78;102395.13;5139413;27;20226;-56
2021/03/03 05:19:46;;;;;;;40.38;19.15;;;;;;;-1.25;88.09;102391.13;5137927;27;20222;-56
2021/03/03 05:22:13;;;;;;;43.45;19.48;;;;;;;-1.15;87.40;102392.19;5139403;27;20191;-56
2021/03/03 05:24:39;;;;;;;39.70;18.42;;;;;;;-1.16;87.81;102390.38;5137603;27;20234;-55
2021/03/03 05:27:06;;;;;;;37.10;18.45;;;;;;;-1.27;88.06;102387.50;5139125;27;20278;-56
2021/03/03 05:29:33;;;;;;;37.58;18.65;;;;;;;-1.24;88.53;102381.88;5137804;27;20226;-56
2021/03/03 05:32:00;;;;;;;45.22;20.63;;;;;;;-1.27;88.21;102381.56;5139916;27;20290;-57
2021/03/03 05:34:27;;;;;;;43.15;19.70;;;;;;;-1.29;88.82;102381.38;5154632;27;20233;-53
2021/03/03 05:36:58;;;;;;;42.17;20.80;;;;;;;-1.28;89.07;102389.88;5159782;27;20554;-52
2021/03/03 05:39:25;;;;;;;44.38;20.10;;;;;;;-1.26;88.52;102378.28;5158400;27;20245;-53
2021/03/03 05:41:52;;;;;;;49.35;21.38;;;;;;;-1.30;88.80;102371.97;5160110;27;20205;-53
2021/03/03 05:44:19;;;;;;;52.58;20.75;;;;;;;-1.38;89.07;102376.13;5158532;27;20328;-55
2021/03/03 05:46:46;;;;;;;48.88;21.40;;;;;;;-1.42;89.05;102368.00;5160132;27;20289;-54
2021/03/03 05:49:15;;;;;;;53.30;20.92;;;;;;;-1.43;90.06;102374.69;5158706;27;20316;-55
2021/03/03 05:51:43;;;;;;;57.95;23.55;;;;;;;-1.38;90.58;102380.31;5160043;27;20198;-54
2021/03/03 05:54:10;;;;;;;59.00;22.73;;;;;;;-1.41;91.05;102379.94;5158371;27;20230;-52
2021/03/03 05:56:37;;;;;;;79.57;23.40;;;;;;;-1.50;91.32;102373.09;5159922;27;20193;-55
2021/03/03 05:59:03;;;;;;;133.52;25.88;;;;;;;-1.50;91.58;102375.63;5158329;27;20233;-55
2021/03/03 06:01:31;;;;;;;162.55;26.80;;;;;;;-1.58;91.66;102373.84;5158924;27;20255;-56
2021/03/03 06:04:18;;;;;;;167.48;27.27;;;;;;;-1.60;91.81;102370.22;5136817;27;20509;-57
2021/03/03 06:06:46;;;;;;;88.35;22.70;;;;;;;-1.72;92.30;102371.31;5138614;27;20583;-57
2021/03/03 06:09:13;;;;;;;77.53;24.45;;;;;;;-1.64;92.66;102365.53;5136865;27;20235;-56
2021/03/03 06:11:40;;;;;;;101.28;23.60;;;;;;;-1.72;92.72;102364.63;5138536;27;20225;-53
2021/03/03 06:14:06;;;;;;;116.78;25.83;;;;;;;-1.83;92.97;102358.31;5136617;27;20238;-55
2021/03/03 06:16:33;;;;;;;60.92;21.23;;;;;;;-1.66;93.18;102359.38;5137950;27;20213;-54
2021/03/03 06:19:00;;;;;;;125.53;22.55;;;;;;;-1.68;93.33;102363.34;5136740;27;20234;-54
2021/03/03 06:21:28;;;;;;;157.70;24.85;;;;;;;-1.73;93.35;102354.31;5143627;27;20198;-54
2021/03/03 06:24:04;;;;;;;94.97;23.23;;;;;;;-1.64;93.29;102350.34;5156609;27;20321;-54
2021/03/03 06:26:31;;;;;;;126.25;22.95;;;;;;;-1.65;93.34;102345.97;5158254;27;20210;-55
2021/03/03 06:28:58;;;;;;;144.93;24.50;;;;;;;-1.59;93.56;102351.75;5156929;27;20651;-53
2021/03/03 06:31:30;;;;;;;123.05;24.05;;;;;;;-1.60;93.39;102349.06;5158361;27;20213;-55
2021/03/03 06:34:10;;;;;;;150.27;27.60;;;;;;;-1.59;93.29;102350.88;5154323;27;20295;-58
2021/03/03 06:36:37;;;;;;;96.38;23.85;;;;;;;-1.66;93.12;102346.72;5157130;27;20209;-56
2021/03/03 06:39:17;;;;;;;99.70;21.67;;;;;;;-1.68;93.16;102345.63;5157200;27;20328;-54
2021/03/03 06:41:43;;;;;;;69.20;20.98;;;;;;;-1.60;93.48;102344.00;5158485;27;20210;-53
2021/03/03 06:44:10;;;;;;;258.70;29.35;;;;;;;-1.64;93.66;102342.75;5155835;27;20236;-55
2021/03/03 06:46:37;;;;;;;201.18;26.50;;;;;;;-1.64;93.46;102340.22;5158644;27;20210;-55
2021/03/03 06:49:04;;;;;;;126.57;24.45;;;;;;;-1.58;93.36;102345.06;5149353;27;20270;-55
2021/03/03 06:51:32;;;;;;;215.80;27.45;;;;;;;-1.43;92.82;102343.41;5158187;27;20229;-55
2021/03/03 06:54:00;;;;;;;159.05;25.67;;;;;;;-1.22;92.66;102339.94;5136274;27;20323;-56
2021/03/03 06:56:38;;;;;;;189.02;25.80;;;;;;;-1.13;92.11;102335.00;5137616;27;20202;-55
2021/03/03 06:59:21;;;;;;;122.45;22.75;;;;;;;-1.25;91.83;102334.50;5123601;27;20523;-57
2021/03/03 07:01:49;;;;;;;181.82;26.95;;;;;;;-1.37;92.68;102337.41;5137539;27;20211;-56
2021/03/03 07:04:30;;;;;;;53.42;21.55;;;;;;;-1.15;92.89;102337.38;5105155;27;20238;-53
2021/03/03 07:06:59;;;;;;;92.68;23.27;;;;;;;-1.27;92.89;102336.84;5137315;27;20945;-54
2021/03/03 07:09:36;;;;;;;175.13;27.27;;;;;;;-1.15;93.50;102331.38;5135686;27;20230;-57
2021/03/03 07:12:07;;;;;;;71.25;21.83;;;;;;;-1.15;93.26;102326.31;5145322;27;20208;-52
2021/03/03 07:14:33;;;;;;;77.78;22.30;;;;;;;-1.12;93.74;102331.75;5143893;27;20522;-55
2021/03/03 07:17:14;;;;;;;82.65;21.67;;;;;;;-1.03;93.72;102335.31;5156867;27;20239;-52
2021/03/03 07:19:43;;;;;;;72.22;22.30;;;;;;;-1.01;93.49;102340.56;5155879;27;20271;-52
2021/03/03 07:22:25;;;;;;;83.35;21.58;;;;;;;-0.96;93.73;102329.34;5157192;27;20297;-54
2021/03/03 07:24:53;;;;;;;147.45;24.85;;;;;;;-0.90;93.71;102324.03;5156501;27;20222;-53
2021/03/03 07:27:21;;;;;;;164.73;24.75;;;;;;;-0.83;93.54;102326.53;5156898;27;20321;-53
2021/03/03 07:29:49;;;;;;;156.95;25.85;;;;;;;-0.75;93.70;102328.31;5151550;27;20230;-56
2021/03/03 07:32:16;;;;;;;83.22;22.02;;;;;;;-0.84;93.33;102335.78;5157019;27;20298;-57
2021/03/03 07:34:46;;;;;;;223.32;26.55;;;;;;;-0.84;93.36;102330.72;5155095;27;20241;-55
2021/03/03 07:37:14;;;;;;;171.77;25.75;;;;;;;-0.80;93.91;102324.38;5157504;27;20214;-53
2021/03/03 07:39:43;;;;;;;92.20;25.50;;;;;;;-0.61;93.10;102329.84;5155522;27;20238;-54
2021/03/03 07:42:12;;;;;;;139.95;24.00;;;;;;;-0.60;93.29;102318.09;5156415;27;20210;-52
2021/03/03 07:44:42;;;;;;;92.00;23.17;;;;;;;-0.59;93.78;102318.28;5152690;27;20242;-55
2021/03/03 07:47:10;;;;;;;83.47;21.13;;;;;;;-0.48;93.87;102327.06;5156591;27;20205;-57
2021/03/03 07:49:37;;;;;;;108.63;22.17;;;;;;;-0.34;94.24;102325.16;5136642;27;20549;-55
2021/03/03 07:52:05;;;;;;;100.05;24.95;;;;;;;-0.23;93.73;102319.66;5134956;27;20286;-51
2021/03/03 07:54:32;;;;;;;103.55;25.42;;;;;;;-0.06;93.47;102316.41;5136509;27;20539;-53
2021/03/03 07:57:00;;;;;;;83.85;23.50;;;;;;;0.19;93.64;102313.09;5135453;27;20217;-53
2021/03/03 07:59:26;;;;;;;148.93;26.98;;;;;;;0.15;92.37;102313.53;5137025;27;20236;-53
2021/03/03 08:01:54;;;;;;;125.80;26.48;;;;;;;0.33;92.88;102300.28;5135414;27;20202;-54
2021/03/03 08:04:35;;;;;;;106.50;26.27;;;;;;;0.26;92.57;102302.91;5146072;27;20366;-54
2021/03/03 08:07:22;;;;;;;126.30;27.25;;;;;;;0.30;92.25;102311.75;5143302;27;20290;-57
2021/03/03 08:10:31;;;;;;;132.93;27.65;;;;;;;0.16;92.82;102305.19;5121696;27;20226;-54
2021/03/03 08:13:08;;;;;;;73.65;23.38;;;;;;;0.24;92.81;102307.81;5151204;27;20240;-53
2021/03/03 08:15:40;;;;;;;106.85;27.60;;;;;;;0.25;92.97;102308.69;5153069;27;20208;-54
2021/03/03 08:18:27;;;;;;;64.80;24.67;;;;;;;0.35;92.66;102311.50;5148816;27;20666;-52
2021/03/03 08:20:56;;;;;;;94.20;26.67;;;;;;;0.38;92.73;102304.25;5150908;27;20521;-52
2021/03/03 08:23:46;;;;;;;91.20;28.75;;;;;;;0.45;92.46;102299.81;5135132;27;20544;-53
2021/03/03 08:26:32;;;;;;;122.28;29.15;;;;;;;0.39;92.87;102300.03;5152615;27;20691;-52
2021/03/03 08:29:21;;;;;;;90.90;25.98;;;;;;;0.49;93.23;102292.69;5150506;27;20357;-52
2021/03/03 08:31:48;;;;;;;72.27;27.27;;;;;;;0.63;93.05;102291.63;5146890;27;20601;-57
2021/03/03 08:34:16;;;;;;;88.37;27.90;;;;;;;0.96;92.40;102286.50;5150912;27;20913;-55
2021/03/03 08:36:55;;;;;;;71.38;26.45;;;;;;;0.92;91.86;102283.63;5144993;27;20482;-55
2021/03/03 08:39:39;;;;;;;79.60;27.03;;;;;;;0.91;92.38;102283.47;5148244;27;20240;-55
2021/03/03 08:42:29;;;;;;;86.77;27.87;;;;;;;1.03;92.42;102278.78;5153405;27;20462;-54
2021/03/03 08:45:01;;;;;;;100.22;30.50;;;;;;;1.20;92.59;102272.91;5150372;27;20456;-56
2021/03/03 08:48:01;;;;;;;90.83;31.00;;;;;;;1.47;92.45;102271.41;5142861;27;20233;-53
2021/03/03 08:50:31;;;;;;;106.73;36.47;;;;;;;1.70;92.06;102271.22;5155741;27;20989;-51
2021/03/03 08:53:34;;;;;;;103.43;37.00;;;;;;;1.93;91.38;102277.75;5144556;27;20450;-54
2021/03/03 08:56:32;;;;;;;108.53;34.27;;;;;;;2.11;90.89;102273.59;5139584;27;20509;-55
2021/03/03 08:59:04;;;;;;;102.50;35.47;;;;;;;2.35;90.50;102258.09;5138157;27;20519;-57
2021/03/03 09:01:55;;;;;;;101.17;33.67;;;;;;;2.49;89.90;102252.69;5139565;27;20463;-54
2021/03/03 09:04:28;;;;;;;93.17;32.53;;;;;;;2.72;90.15;102261.69;5119028;27;20524;-55
2021/03/03 09:06:58;;;;;;;96.87;34.20;;;;;;;2.92;89.43;102252.56;5139782;27;20441;-53
2021/03/03 09:09:25;;;;;;;75.27;27.57;;;;;;;3.26;89.17;102247.22;5137402;27;20498;-56
2021/03/03 09:12:06;;;;;;;81.70;30.20;;;;;;;3.41;87.80;102247.78;5153162;27;20467;-53
2021/03/03 09:14:33;;;;;;;108.43;37.07;;;;;;;3.43;87.37;102242.06;5155457;27;20456;-54
2021/03/03 09:17:01;;;;;;;78.97;32.40;;;;;;;3.64;86.92;102245.75;5156935;27;20448;-57
2021/03/03 09:19:29;;;;;;;78.83;34.00;;;;;;;3.73;86.21;102249.91;5155070;27;20561;-55
2021/03/03 09:21:56;;;;;;;74.40;30.87;;;;;;;4.03;84.98;102243.31;5156780;27;20429;-52
2021/03/03 09:24:24;;;;;;;66.27;27.63;;;;;;;4.08;84.49;102242.06;5153643;27;20457;-54
2021/03/03 09:27:05;;;;;;;84.77;34.47;;;;;;;4.46;84.42;102242.13;5155605;27;20463;-54
2021/03/03 09:29:33;;;;;;;79.93;29.67;;;;;;;4.58;83.25;102234.63;5145673;27;20465;-53
2021/03/03 09:32:05;;;;;;;71.93;28.67;;;;;;;4.76;82.43;102221.72;5154208;27;20945;-57
2021/03/03 09:34:34;;;;;;;81.30;29.10;;;;;;;4.98;81.51;102214.28;5154543;27;20449;-56
2021/03/03 09:37:04;;;;;;;68.27;26.00;;;;;;;5.30;80.72;102209.28;5154921;27;20549;-57
2021/03/03 09:39:32;;;;;;;51.50;23.00;;;;;;;5.35;79.07;102213.13;5150747;27;20542;-55
2021/03/03 09:42:00;;;;;;;67.57;26.87;;;;;;;5.45;79.05;102202.94;5152395;27;20466;-58
2021/03/03 09:44:28;;;;;;;58.87;25.50;;;;;;;5.58;77.80;102201.41;5148990;27;20476;-53
2021/03/03 09:47:00;;;;;;;59.97;25.23;;;;;;;6.10;79.25;102206.59;5150996;27;20778;-56
2021/03/03 09:49:29;;;;;;;88.37;33.63;;;;;;;6.21;78.54;102209.28;5153151;27;20479;-57
2021/03/03 09:51:56;;;;;;;56.50;25.37;;;;;;;6.37;76.73;102205.44;5143712;27;20464;-57
2021/03/03 09:54:33;;;;;;;58.87;23.93;;;;;;;6.39;74.43;102205.53;5136819;27;20460;-56
2021/03/03 09:57:20;;;;;;;51.50;23.13;;;;;;;6.31;73.08;102203.25;5137393;27;20459;-57
2021/03/03 09:59:49;;;;;;;48.83;23.13;;;;;;;6.31;72.36;102199.81;5126373;27;20464;-57
2021/03/03 10:02:18;;;;;;;56.37;24.50;;;;;;;6.46;72.26;102193.34;5138530;27;20828;-56
2021/03/03 10:04:46;;;;;;;67.60;23.90;;;;;;;6.78;72.16;102196.75;5134616;27;20923;-57
2021/03/03 10:07:21;;;;;;;66.07;28.90;;;;;;;6.91;71.02;102187.47;5138339;27;20811;-53
2021/03/03 10:09:51;;;;;;;56.57;23.60;;;;;;;6.96;70.46;102188.69;5137974;27;20473;-55
2021/03/03 10:12:19;;;;;;;51.10;21.73;;;;;;;7.00;69.55;102183.03;5155264;27;20571;-57
2021/03/03 10:15:04;;;;;;;56.17;22.03;;;;;;;7.10;69.69;102179.53;5155185;27;20461;-58
2021/03/03 10:17:36;;;;;;;51.13;21.90;;;;;;;7.16;68.98;102186.06;5142818;27;20509;-56
2021/03/03 10:20:06;;;;;;;53.60;23.63;;;;;;;7.35;68.69;102187.50;5152567;27;20465;-55
2021/03/03 10:22:33;;;;;;;52.83;25.17;;;;;;;7.52;68.83;102182.75;5153926;27;20884;-57
2021/03/03 10:25:04;;;;;;;66.07;24.90;;;;;;;7.74;68.70;102171.56;5149790;27;20757;-55
2021/03/03 10:27:36;;;;;;;52.90;21.87;;;;;;;7.80;67.14;102177.16;5132614;27;20577;-58
2021/03/03 10:30:20;;;;;;;55.37;21.97;;;;;;;7.84;66.91;102169.81;5153956;27;20491;-59
2021/03/03 10:32:47;;;;;;;49.10;21.53;;;;;;;7.95;66.97;102170.59;5153898;27;20486;-55
2021/03/03 10:35:14;;;;;;;61.20;24.60;;;;;;;8.13;66.93;102175.34;5151874;27;20775;-54
2021/03/03 10:37:41;;;;;;;49.27;22.10;;;;;;;8.21;65.68;102171.66;5152110;27;20478;-55
2021/03/03 10:40:15;;;;;;;49.30;21.90;;;;;;;8.31;65.37;102167.19;5154961;27;20910;-57
2021/03/03 10:42:42;;;;;;;53.43;22.40;;;;;;;8.47;64.76;102164.94;5153600;27;20483;-57
2021/03/03 10:45:22;;;;;;;48.10;21.40;;;;;;;8.60;64.30;102165.88;5154542;27;20466;-55
2021/03/03 10:47:50;;;;;;;44.70;21.00;;;;;;;8.78;63.67;102161.19;5153286;27;20483;-56
2021/03/03 10:50:32;;;;;;;43.70;20.57;;;;;;;8.90;63.56;102162.06;5155145;27;20812;-57
2021/03/03 10:53:00;;;;;;;41.00;20.33;;;;;;;8.98;63.03;102169.41;5151645;27;20474;-55
2021/03/03 10:55:35;;;;;;;44.63;20.77;;;;;;;9.15;62.53;102162.88;5154622;27;20469;-58
2021/03/03 10:58:04;;;;;;;50.33;21.50;;;;;;;9.39;62.11;102157.66;5149849;27;20533;-57
2021/03/03 11:00:31;;;;;;;46.63;20.13;;;;;;;9.54;61.61;102150.09;5153464;27;20463;-53
2021/03/03 11:03:03;;;;;;;46.83;21.30;;;;;;;9.76;60.69;102152.44;5135662;27;20476;-57
2021/03/03 11:05:30;;;;;;;39.83;18.13;;;;;;;9.82;59.80;102149.38;5136584;27;20548;-57
2021/03/03 11:08:05;;;;;;;42.30;19.90;;;;;;;9.96;61.11;102142.56;5125330;27;20463;-57
2021/03/03 11:10:32;;;;;;;39.70;18.70;;;;;;;10.11;59.39;102137.53;5137004;27;20772;-59
2021/03/03 11:13:00;;;;;;;36.67;16.60;;;;;;;10.24;56.58;102140.09;5135455;27;20476;-56
2021/03/03 11:15:27;;;;;;;31.03;13.63;;;;;;;10.35;56.13;102133.06;5129524;27;20456;-58
2021/03/03 11:17:54;;;;;;;34.80;15.43;;;;;;;10.52;55.60;102130.72;5125847;27;20996;-58
2021/03/03 11:20:21;;;;;;;34.97;15.73;;;;;;;10.47;55.38;102129.53;5126586;27;20764;-58
2021/03/03 11:22:48;;;;;;;36.93;17.67;;;;;;;10.49;55.56;102120.19;5127576;27;21143;-55
2021/03/03 11:25:15;;;;;;;33.13;14.80;;;;;;;10.55;55.80;102120.56;5131052;27;20460;-54